sensor_id;sensor_type;location;lat;lon;timestamp;temperature;humidity
7846;DHT22;3968;51.424;6.788;2024-02-16T00:01:01;13.40;99.90
7846;DHT22;3968;51.424;6.788;2024-02-16T00:03:28;13.40;99.90
7846;DHT22;3968;51.424;6.788;2024-02-16T00:05:54;13.40;99.90
7846;DHT22;3968;51.424;6.788;2024-02-16T00:08:20;13.40;99.90
7846;DHT22;3968;51.424;6.788;2024-02-16T00:10:46;13.40;99.90
7846;DHT22;3968;51.424;6.788;2024-02-16T00:13:12;13.40;99.90
7846;DHT22;3968;51.424;6.788;2024-02-16T00:15:38;13.40;99.90
7846;DHT22;3968;51.424;6.788;2024-02-16T00:18:05;13.40;99.90
7846;DHT22;3968;51.424;6.788;2024-02-16T00:20:31;13.50;99.90
7846;DHT22;3968;51.424;6.788;2024-02-16T00:22:57;13.50;99.90
7846;DHT22;3968;51.424;6.788;2024-02-16T00:25:23;13.50;99.90
7846;DHT22;3968;51.424;6.788;2024-02-16T00:27:49;13.50;99.90
7846;DHT22;3968;51.424;6.788;2024-02-16T00:30:16;13.50;99.90
7846;DHT22;3968;51.424;6.788;2024-02-16T00:32:43;13.50;99.90
7846;DHT22;3968;51.424;6.788;2024-02-16T00:35:11;13.50;99.90
7846;DHT22;3968;51.424;6.788;2024-02-16T00:37:36;13.50;99.90
7846;DHT22;3968;51.424;6.788;2024-02-16T00:40:03;13.50;99.90
7846;DHT22;3968;51.424;6.788;2024-02-16T00:42:30;13.50;99.90
7846;DHT22;3968;51.424;6.788;2024-02-16T00:44:56;13.50;99.90
7846;DHT22;3968;51.424;6.788;2024-02-16T00:47:22;13.50;99.90
7846;DHT22;3968;51.424;6.788;2024-02-16T00:49:49;13.50;99.90
7846;DHT22;3968;51.424;6.788;2024-02-16T00:52:14;13.50;99.90
7846;DHT22;3968;51.424;6.788;2024-02-16T00:54:40;13.50;99.90
7846;DHT22;3968;51.424;6.788;2024-02-16T00:57:05;13.50;99.90
7846;DHT22;3968;51.424;6.788;2024-02-16T00:59:31;13.50;99.90
7846;DHT22;3968;51.424;6.788;2024-02-16T01:01:57;13.50;99.90
7846;DHT22;3968;51.424;6.788;2024-02-16T01:04:23;13.50;99.90
7846;DHT22;3968;51.424;6.788;2024-02-16T01:06:49;13.50;99.90
7846;DHT22;3968;51.424;6.788;2024-02-16T01:09:15;13.50;99.90
7846;DHT22;3968;51.424;6.788;2024-02-16T01:11:42;13.40;99.90
7846;DHT22;3968;51.424;6.788;2024-02-16T01:14:08;13.50;99.90
7846;DHT22;3968;51.424;6.788;2024-02-16T01:16:33;13.40;99.90
7846;DHT22;3968;51.424;6.788;2024-02-16T01:18:59;13.40;99.90
7846;DHT22;3968;51.424;6.788;2024-02-16T01:21:24;13.40;99.90
7846;DHT22;3968;51.424;6.788;2024-02-16T01:23:50;13.50;99.90
7846;DHT22;3968;51.424;6.788;2024-02-16T01:26:16;13.40;99.90
7846;DHT22;3968;51.424;6.788;2024-02-16T01:28:42;13.50;99.90
7846;DHT22;3968;51.424;6.788;2024-02-16T01:31:07;13.50;99.90
7846;DHT22;3968;51.424;6.788;2024-02-16T01:33:36;13.50;99.90
7846;DHT22;3968;51.424;6.788;2024-02-16T01:36:02;13.40;99.90
7846;DHT22;3968;51.424;6.788;2024-02-16T01:38:28;13.50;99.90
7846;DHT22;3968;51.424;6.788;2024-02-16T01:40:54;13.50;99.90
7846;DHT22;3968;51.424;6.788;2024-02-16T01:43:22;13.50;99.90
7846;DHT22;3968;51.424;6.788;2024-02-16T01:45:48;13.50;99.90
7846;DHT22;3968;51.424;6.788;2024-02-16T01:48:14;13.50;99.90
7846;DHT22;3968;51.424;6.788;2024-02-16T01:50:43;13.50;99.90
7846;DHT22;3968;51.424;6.788;2024-02-16T01:53:09;13.50;99.90
7846;DHT22;3968;51.424;6.788;2024-02-16T01:55:36;13.50;99.90
7846;DHT22;3968;51.424;6.788;2024-02-16T01:58:03;13.50;99.90
7846;DHT22;3968;51.424;6.788;2024-02-16T02:00:29;13.50;99.90
7846;DHT22;3968;51.424;6.788;2024-02-16T02:02:55;13.50;99.90
7846;DHT22;3968;51.424;6.788;2024-02-16T02:05:22;13.50;99.90
7846;DHT22;3968;51.424;6.788;2024-02-16T02:07:48;13.50;99.90
7846;DHT22;3968;51.424;6.788;2024-02-16T02:10:14;13.50;99.90
7846;DHT22;3968;51.424;6.788;2024-02-16T02:12:41;13.50;99.90
7846;DHT22;3968;51.424;6.788;2024-02-16T02:15:08;13.50;99.90
7846;DHT22;3968;51.424;6.788;2024-02-16T02:17:34;13.50;99.90
7846;DHT22;3968;51.424;6.788;2024-02-16T02:20:00;13.60;99.90
7846;DHT22;3968;51.424;6.788;2024-02-16T02:22:26;13.50;99.90
7846;DHT22;3968;51.424;6.788;2024-02-16T02:24:52;13.50;99.90
7846;DHT22;3968;51.424;6.788;2024-02-16T02:27:21;13.50;99.90
7846;DHT22;3968;51.424;6.788;2024-02-16T02:29:47;13.60;99.90
7846;DHT22;3968;51.424;6.788;2024-02-16T02:32:13;13.60;99.90
7846;DHT22;3968;51.424;6.788;2024-02-16T02:34:38;13.50;99.90
7846;DHT22;3968;51.424;6.788;2024-02-16T02:37:05;13.50;99.90
7846;DHT22;3968;51.424;6.788;2024-02-16T02:39:31;13.50;99.90
7846;DHT22;3968;51.424;6.788;2024-02-16T02:41:56;13.50;99.90
7846;DHT22;3968;51.424;6.788;2024-02-16T02:44:23;13.50;99.90
7846;DHT22;3968;51.424;6.788;2024-02-16T02:46:49;13.50;99.90
7846;DHT22;3968;51.424;6.788;2024-02-16T02:49:14;13.50;99.90
7846;DHT22;3968;51.424;6.788;2024-02-16T02:51:40;13.50;99.90
7846;DHT22;3968;51.424;6.788;2024-02-16T02:54:06;13.50;99.90
7846;DHT22;3968;51.424;6.788;2024-02-16T02:56:31;13.50;99.90
7846;DHT22;3968;51.424;6.788;2024-02-16T02:58:57;13.50;99.90
7846;DHT22;3968;51.424;6.788;2024-02-16T03:01:22;13.50;99.90
7846;DHT22;3968;51.424;6.788;2024-02-16T03:03:48;13.50;99.90
7846;DHT22;3968;51.424;6.788;2024-02-16T03:06:18;13.50;99.90
7846;DHT22;3968;51.424;6.788;2024-02-16T03:08:44;13.50;99.90
7846;DHT22;3968;51.424;6.788;2024-02-16T03:11:10;13.50;99.90
7846;DHT22;3968;51.424;6.788;2024-02-16T03:13:36;13.50;99.90
7846;DHT22;3968;51.424;6.788;2024-02-16T03:16:01;13.50;99.90
7846;DHT22;3968;51.424;6.788;2024-02-16T03:18:31;13.50;99.90
7846;DHT22;3968;51.424;6.788;2024-02-16T03:20:57;13.50;99.90
7846;DHT22;3968;51.424;6.788;2024-02-16T03:23:23;13.50;99.90
7846;DHT22;3968;51.424;6.788;2024-02-16T03:25:48;13.40;99.90
7846;DHT22;3968;51.424;6.788;2024-02-16T03:28:14;13.40;99.90
7846;DHT22;3968;51.424;6.788;2024-02-16T03:30:41;13.40;99.90
7846;DHT22;3968;51.424;6.788;2024-02-16T03:33:07;13.40;99.90
7846;DHT22;3968;51.424;6.788;2024-02-16T03:35:33;13.40;99.90
7846;DHT22;3968;51.424;6.788;2024-02-16T03:37:59;13.40;99.90
7846;DHT22;3968;51.424;6.788;2024-02-16T03:40:24;13.50;99.90
7846;DHT22;3968;51.424;6.788;2024-02-16T03:42:51;13.50;99.90
7846;DHT22;3968;51.424;6.788;2024-02-16T03:45:17;13.50;99.90
7846;DHT22;3968;51.424;6.788;2024-02-16T03:47:43;13.50;99.90
7846;DHT22;3968;51.424;6.788;2024-02-16T03:50:09;13.50;99.90
7846;DHT22;3968;51.424;6.788;2024-02-16T03:52:35;13.50;99.90
7846;DHT22;3968;51.424;6.788;2024-02-16T03:55:00;13.50;99.90
7846;DHT22;3968;51.424;6.788;2024-02-16T03:57:26;13.50;99.90
7846;DHT22;3968;51.424;6.788;2024-02-16T03:59:52;13.50;99.90
7846;DHT22;3968;51.424;6.788;2024-02-16T04:02:17;13.50;99.90
7846;DHT22;3968;51.424;6.788;2024-02-16T04:04:44;13.50;99.90
7846;DHT22;3968;51.424;6.788;2024-02-16T04:07:10;13.50;99.90
7846;DHT22;3968;51.424;6.788;2024-02-16T04:09:36;13.50;99.90
7846;DHT22;3968;51.424;6.788;2024-02-16T04:12:02;13.50;99.90
7846;DHT22;3968;51.424;6.788;2024-02-16T04:14:29;13.50;99.90
7846;DHT22;3968;51.424;6.788;2024-02-16T04:16:54;13.50;99.90
7846;DHT22;3968;51.424;6.788;2024-02-16T04:19:24;13.50;99.90
7846;DHT22;3968;51.424;6.788;2024-02-16T04:21:49;13.50;99.90
7846;DHT22;3968;51.424;6.788;2024-02-16T04:24:15;13.50;99.90
7846;DHT22;3968;51.424;6.788;2024-02-16T04:26:40;13.50;99.90
7846;DHT22;3968;51.424;6.788;2024-02-16T04:29:06;13.50;99.90
7846;DHT22;3968;51.424;6.788;2024-02-16T04:31:31;13.50;99.90
7846;DHT22;3968;51.424;6.788;2024-02-16T04:33:57;13.50;99.90
7846;DHT22;3968;51.424;6.788;2024-02-16T04:36:23;13.50;99.90
7846;DHT22;3968;51.424;6.788;2024-02-16T04:38:48;13.50;99.90
7846;DHT22;3968;51.424;6.788;2024-02-16T04:41:14;13.50;99.90
7846;DHT22;3968;51.424;6.788;2024-02-16T04:43:41;13.40;99.90
7846;DHT22;3968;51.424;6.788;2024-02-16T04:46:06;13.40;99.90
7846;DHT22;3968;51.424;6.788;2024-02-16T04:48:32;13.40;99.90
7846;DHT22;3968;51.424;6.788;2024-02-16T04:50:59;13.40;99.90
7846;DHT22;3968;51.424;6.788;2024-02-16T04:53:25;13.40;99.90
7846;DHT22;3968;51.424;6.788;2024-02-16T04:55:50;13.40;99.90
7846;DHT22;3968;51.424;6.788;2024-02-16T04:58:16;13.40;99.90
7846;DHT22;3968;51.424;6.788;2024-02-16T05:00:42;13.40;99.90
7846;DHT22;3968;51.424;6.788;2024-02-16T05:03:08;13.40;99.90
7846;DHT22;3968;51.424;6.788;2024-02-16T05:05:33;13.40;99.90
7846;DHT22;3968;51.424;6.788;2024-02-16T05:07:59;13.40;99.90
7846;DHT22;3968;51.424;6.788;2024-02-16T05:10:25;13.40;99.90
7846;DHT22;3968;51.424;6.788;2024-02-16T05:12:51;13.40;99.90
7846;DHT22;3968;51.424;6.788;2024-02-16T05:15:16;13.40;99.90
7846;DHT22;3968;51.424;6.788;2024-02-16T05:17:42;13.40;99.90
7846;DHT22;3968;51.424;6.788;2024-02-16T05:20:13;13.40;99.90
7846;DHT22;3968;51.424;6.788;2024-02-16T05:22:45;13.40;99.90
7846;DHT22;3968;51.424;6.788;2024-02-16T05:25:15;13.40;99.90
7846;DHT22;3968;51.424;6.788;2024-02-16T05:27:41;13.40;99.90
7846;DHT22;3968;51.424;6.788;2024-02-16T05:30:09;13.40;99.90
7846;DHT22;3968;51.424;6.788;2024-02-16T05:32:36;13.40;99.90
7846;DHT22;3968;51.424;6.788;2024-02-16T05:35:06;13.30;99.90
7846;DHT22;3968;51.424;6.788;2024-02-16T05:37:47;13.30;99.90
7846;DHT22;3968;51.424;6.788;2024-02-16T05:40:15;13.30;99.90
7846;DHT22;3968;51.424;6.788;2024-02-16T05:42:52;13.30;99.90
7846;DHT22;3968;51.424;6.788;2024-02-16T05:45:18;13.30;99.90
7846;DHT22;3968;51.424;6.788;2024-02-16T05:47:45;13.30;99.90
7846;DHT22;3968;51.424;6.788;2024-02-16T05:50:11;13.30;99.90
7846;DHT22;3968;51.424;6.788;2024-02-16T05:52:38;13.30;99.90
7846;DHT22;3968;51.424;6.788;2024-02-16T05:55:05;13.20;99.90
7846;DHT22;3968;51.424;6.788;2024-02-16T05:57:31;13.30;99.90
7846;DHT22;3968;51.424;6.788;2024-02-16T05:59:57;13.20;99.90
7846;DHT22;3968;51.424;6.788;2024-02-16T06:02:23;13.20;99.90
7846;DHT22;3968;51.424;6.788;2024-02-16T06:04:51;13.20;99.90
7846;DHT22;3968;51.424;6.788;2024-02-16T06:07:17;13.20;99.90
7846;DHT22;3968;51.424;6.788;2024-02-16T06:09:42;13.20;99.90
7846;DHT22;3968;51.424;6.788;2024-02-16T06:12:08;13.20;99.90
7846;DHT22;3968;51.424;6.788;2024-02-16T06:14:35;13.20;99.90
7846;DHT22;3968;51.424;6.788;2024-02-16T06:17:02;13.20;99.90
7846;DHT22;3968;51.424;6.788;2024-02-16T06:19:28;13.20;99.90
7846;DHT22;3968;51.424;6.788;2024-02-16T06:21:54;13.20;99.90
7846;DHT22;3968;51.424;6.788;2024-02-16T06:24:23;13.20;99.90
7846;DHT22;3968;51.424;6.788;2024-02-16T06:26:49;13.20;99.90
7846;DHT22;3968;51.424;6.788;2024-02-16T06:29:18;13.30;99.90
7846;DHT22;3968;51.424;6.788;2024-02-16T06:31:47;13.20;99.90
7846;DHT22;3968;51.424;6.788;2024-02-16T06:34:15;13.30;99.90
7846;DHT22;3968;51.424;6.788;2024-02-16T06:36:42;13.30;99.90
7846;DHT22;3968;51.424;6.788;2024-02-16T06:39:07;13.30;99.90
7846;DHT22;3968;51.424;6.788;2024-02-16T06:41:34;13.30;99.90
7846;DHT22;3968;51.424;6.788;2024-02-16T06:44:00;13.30;99.90
7846;DHT22;3968;51.424;6.788;2024-02-16T06:46:26;13.20;99.90
7846;DHT22;3968;51.424;6.788;2024-02-16T06:48:53;13.30;99.90
7846;DHT22;3968;51.424;6.788;2024-02-16T06:51:24;13.30;99.90
7846;DHT22;3968;51.424;6.788;2024-02-16T06:53:52;13.30;99.90
7846;DHT22;3968;51.424;6.788;2024-02-16T06:56:17;13.30;99.90
7846;DHT22;3968;51.424;6.788;2024-02-16T06:58:44;13.30;99.90
7846;DHT22;3968;51.424;6.788;2024-02-16T07:01:09;13.30;99.90
7846;DHT22;3968;51.424;6.788;2024-02-16T07:03:35;13.30;99.90
7846;DHT22;3968;51.424;6.788;2024-02-16T07:06:03;13.30;99.90
7846;DHT22;3968;51.424;6.788;2024-02-16T07:08:29;13.30;99.90
7846;DHT22;3968;51.424;6.788;2024-02-16T07:10:54;13.40;99.90
7846;DHT22;3968;51.424;6.788;2024-02-16T07:13:22;13.40;99.90
7846;DHT22;3968;51.424;6.788;2024-02-16T07:15:47;13.40;99.90
7846;DHT22;3968;51.424;6.788;2024-02-16T07:18:13;13.40;99.90
7846;DHT22;3968;51.424;6.788;2024-02-16T07:20:38;13.40;99.90
7846;DHT22;3968;51.424;6.788;2024-02-16T07:23:04;13.40;99.90
7846;DHT22;3968;51.424;6.788;2024-02-16T07:25:30;13.40;99.90
7846;DHT22;3968;51.424;6.788;2024-02-16T07:27:55;13.40;99.90
7846;DHT22;3968;51.424;6.788;2024-02-16T07:30:21;13.50;99.90
7846;DHT22;3968;51.424;6.788;2024-02-16T07:32:52;13.50;99.90
7846;DHT22;3968;51.424;6.788;2024-02-16T07:35:18;13.50;99.90
7846;DHT22;3968;51.424;6.788;2024-02-16T07:37:44;13.60;99.90
7846;DHT22;3968;51.424;6.788;2024-02-16T07:40:10;13.60;99.90
7846;DHT22;3968;51.424;6.788;2024-02-16T07:42:39;13.70;99.90
7846;DHT22;3968;51.424;6.788;2024-02-16T07:45:06;13.70;99.90
7846;DHT22;3968;51.424;6.788;2024-02-16T07:47:32;13.70;99.90
7846;DHT22;3968;51.424;6.788;2024-02-16T07:49:57;13.80;99.90
7846;DHT22;3968;51.424;6.788;2024-02-16T07:52:23;13.80;99.90
7846;DHT22;3968;51.424;6.788;2024-02-16T07:54:48;13.80;99.90
7846;DHT22;3968;51.424;6.788;2024-02-16T07:57:17;13.90;99.90
7846;DHT22;3968;51.424;6.788;2024-02-16T07:59:43;13.90;99.90
7846;DHT22;3968;51.424;6.788;2024-02-16T08:02:09;14.00;99.90
7846;DHT22;3968;51.424;6.788;2024-02-16T08:04:35;14.00;99.90
7846;DHT22;3968;51.424;6.788;2024-02-16T08:07:01;14.10;99.90
7846;DHT22;3968;51.424;6.788;2024-02-16T08:09:27;14.10;99.90
7846;DHT22;3968;51.424;6.788;2024-02-16T08:11:52;14.10;99.90
7846;DHT22;3968;51.424;6.788;2024-02-16T08:14:18;14.10;99.90
7846;DHT22;3968;51.424;6.788;2024-02-16T08:16:44;14.10;99.90
7846;DHT22;3968;51.424;6.788;2024-02-16T08:19:09;14.10;99.90
7846;DHT22;3968;51.424;6.788;2024-02-16T08:21:35;14.10;99.90
7846;DHT22;3968;51.424;6.788;2024-02-16T08:24:00;14.20;99.90
7846;DHT22;3968;51.424;6.788;2024-02-16T08:26:27;14.20;99.90
7846;DHT22;3968;51.424;6.788;2024-02-16T08:28:52;14.20;99.90
7846;DHT22;3968;51.424;6.788;2024-02-16T08:31:18;14.30;99.90
7846;DHT22;3968;51.424;6.788;2024-02-16T08:33:45;14.30;99.90
7846;DHT22;3968;51.424;6.788;2024-02-16T08:36:12;14.30;99.90
7846;DHT22;3968;51.424;6.788;2024-02-16T08:38:38;14.40;99.90
7846;DHT22;3968;51.424;6.788;2024-02-16T08:41:03;14.40;99.90
7846;DHT22;3968;51.424;6.788;2024-02-16T08:43:29;14.50;99.90
7846;DHT22;3968;51.424;6.788;2024-02-16T08:45:55;14.50;99.90
7846;DHT22;3968;51.424;6.788;2024-02-16T08:48:21;14.60;99.90
7846;DHT22;3968;51.424;6.788;2024-02-16T08:50:47;14.70;99.90
7846;DHT22;3968;51.424;6.788;2024-02-16T08:53:15;14.80;99.90
7846;DHT22;3968;51.424;6.788;2024-02-16T08:55:41;14.80;99.90
7846;DHT22;3968;51.424;6.788;2024-02-16T08:58:07;14.80;99.90
7846;DHT22;3968;51.424;6.788;2024-02-16T09:00:34;14.80;99.90
7846;DHT22;3968;51.424;6.788;2024-02-16T09:03:01;14.80;99.90
7846;DHT22;3968;51.424;6.788;2024-02-16T09:05:31;14.80;99.90
7846;DHT22;3968;51.424;6.788;2024-02-16T09:07:57;14.90;99.90
7846;DHT22;3968;51.424;6.788;2024-02-16T09:10:23;14.90;99.90
7846;DHT22;3968;51.424;6.788;2024-02-16T09:12:48;14.90;99.90
7846;DHT22;3968;51.424;6.788;2024-02-16T09:15:14;14.90;99.90
7846;DHT22;3968;51.424;6.788;2024-02-16T09:17:39;14.90;99.90
7846;DHT22;3968;51.424;6.788;2024-02-16T09:20:05;14.90;99.90
7846;DHT22;3968;51.424;6.788;2024-02-16T09:22:33;14.90;99.90
7846;DHT22;3968;51.424;6.788;2024-02-16T09:24:59;14.90;99.90
7846;DHT22;3968;51.424;6.788;2024-02-16T09:27:25;15.00;99.90
7846;DHT22;3968;51.424;6.788;2024-02-16T09:29:51;15.00;99.90
7846;DHT22;3968;51.424;6.788;2024-02-16T09:32:17;15.00;99.90
7846;DHT22;3968;51.424;6.788;2024-02-16T09:34:43;15.10;99.90
7846;DHT22;3968;51.424;6.788;2024-02-16T09:37:08;15.10;99.90
7846;DHT22;3968;51.424;6.788;2024-02-16T09:39:34;15.20;99.90
7846;DHT22;3968;51.424;6.788;2024-02-16T09:42:00;15.20;99.90
7846;DHT22;3968;51.424;6.788;2024-02-16T09:44:26;15.20;99.90
7846;DHT22;3968;51.424;6.788;2024-02-16T09:46:54;15.20;99.90
7846;DHT22;3968;51.424;6.788;2024-02-16T09:49:20;15.30;99.90
7846;DHT22;3968;51.424;6.788;2024-02-16T09:51:46;15.30;99.90
7846;DHT22;3968;51.424;6.788;2024-02-16T09:54:11;15.40;99.90
7846;DHT22;3968;51.424;6.788;2024-02-16T09:56:37;15.40;99.90
7846;DHT22;3968;51.424;6.788;2024-02-16T09:59:03;15.40;99.90
7846;DHT22;3968;51.424;6.788;2024-02-16T10:01:28;15.40;99.90
7846;DHT22;3968;51.424;6.788;2024-02-16T10:04:06;15.50;99.90
7846;DHT22;3968;51.424;6.788;2024-02-16T10:06:32;15.50;99.90
7846;DHT22;3968;51.424;6.788;2024-02-16T10:08:58;15.50;99.90
7846;DHT22;3968;51.424;6.788;2024-02-16T10:11:26;15.50;99.90
7846;DHT22;3968;51.424;6.788;2024-02-16T10:14:02;15.50;99.90
7846;DHT22;3968;51.424;6.788;2024-02-16T10:16:31;15.50;99.90
7846;DHT22;3968;51.424;6.788;2024-02-16T10:19:04;15.40;99.90
7846;DHT22;3968;51.424;6.788;2024-02-16T10:21:30;15.40;99.90
7846;DHT22;3968;51.424;6.788;2024-02-16T10:24:04;15.40;99.90
7846;DHT22;3968;51.424;6.788;2024-02-16T10:26:32;15.40;99.90
7846;DHT22;3968;51.424;6.788;2024-02-16T10:28:58;15.40;99.90
7846;DHT22;3968;51.424;6.788;2024-02-16T10:31:25;15.40;99.90
7846;DHT22;3968;51.424;6.788;2024-02-16T10:33:58;15.40;99.90
7846;DHT22;3968;51.424;6.788;2024-02-16T10:36:25;15.40;99.90
7846;DHT22;3968;51.424;6.788;2024-02-16T10:38:55;15.50;99.90
7846;DHT22;3968;51.424;6.788;2024-02-16T10:41:28;15.50;99.90
7846;DHT22;3968;51.424;6.788;2024-02-16T10:43:55;15.50;99.90
7846;DHT22;3968;51.424;6.788;2024-02-16T10:46:22;15.50;99.90
7846;DHT22;3968;51.424;6.788;2024-02-16T10:48:48;15.50;99.90
7846;DHT22;3968;51.424;6.788;2024-02-16T10:51:15;15.50;99.90
7846;DHT22;3968;51.424;6.788;2024-02-16T10:53:45;15.50;99.90
7846;DHT22;3968;51.424;6.788;2024-02-16T10:56:13;15.50;99.90
7846;DHT22;3968;51.424;6.788;2024-02-16T10:58:39;15.50;99.90
7846;DHT22;3968;51.424;6.788;2024-02-16T11:01:15;15.50;99.90
7846;DHT22;3968;51.424;6.788;2024-02-16T11:03:40;15.40;99.90
7846;DHT22;3968;51.424;6.788;2024-02-16T11:06:16;15.30;99.90
7846;DHT22;3968;51.424;6.788;2024-02-16T11:08:43;15.30;99.90
7846;DHT22;3968;51.424;6.788;2024-02-16T11:11:08;15.30;99.90
7846;DHT22;3968;51.424;6.788;2024-02-16T11:13:37;15.20;99.90
7846;DHT22;3968;51.424;6.788;2024-02-16T11:16:07;15.20;99.90
7846;DHT22;3968;51.424;6.788;2024-02-16T11:18:38;15.20;99.90
7846;DHT22;3968;51.424;6.788;2024-02-16T11:21:05;15.20;99.90
7846;DHT22;3968;51.424;6.788;2024-02-16T11:23:34;15.20;99.90
7846;DHT22;3968;51.424;6.788;2024-02-16T11:26:04;15.20;99.90
7846;DHT22;3968;51.424;6.788;2024-02-16T11:28:34;15.20;99.90
7846;DHT22;3968;51.424;6.788;2024-02-16T11:31:01;15.20;99.90
7846;DHT22;3968;51.424;6.788;2024-02-16T11:33:28;15.10;99.90
7846;DHT22;3968;51.424;6.788;2024-02-16T11:35:58;15.10;99.90
7846;DHT22;3968;51.424;6.788;2024-02-16T11:38:24;15.10;99.90
7846;DHT22;3968;51.424;6.788;2024-02-16T11:40:58;15.10;99.90
7846;DHT22;3968;51.424;6.788;2024-02-16T11:43:25;15.10;99.90
7846;DHT22;3968;51.424;6.788;2024-02-16T11:45:51;15.10;99.90
7846;DHT22;3968;51.424;6.788;2024-02-16T11:48:26;15.10;99.90
7846;DHT22;3968;51.424;6.788;2024-02-16T11:51:03;15.10;99.90
7846;DHT22;3968;51.424;6.788;2024-02-16T11:53:29;15.10;99.90
7846;DHT22;3968;51.424;6.788;2024-02-16T11:55:55;15.10;99.90
7846;DHT22;3968;51.424;6.788;2024-02-16T11:58:21;15.10;99.90
7846;DHT22;3968;51.424;6.788;2024-02-16T12:00:48;15.00;99.90
7846;DHT22;3968;51.424;6.788;2024-02-16T12:03:26;15.00;99.90
7846;DHT22;3968;51.424;6.788;2024-02-16T12:05:58;15.10;99.90
7846;DHT22;3968;51.424;6.788;2024-02-16T12:08:31;15.00;99.90
7846;DHT22;3968;51.424;6.788;2024-02-16T12:10:57;15.00;99.90
7846;DHT22;3968;51.424;6.788;2024-02-16T12:13:22;15.00;99.90
7846;DHT22;3968;51.424;6.788;2024-02-16T12:15:49;15.00;99.90
7846;DHT22;3968;51.424;6.788;2024-02-16T12:18:26;15.00;99.90
7846;DHT22;3968;51.424;6.788;2024-02-16T12:21:06;15.00;99.90
7846;DHT22;3968;51.424;6.788;2024-02-16T12:23:32;15.00;99.90
7846;DHT22;3968;51.424;6.788;2024-02-16T12:25:59;15.00;99.90
7846;DHT22;3968;51.424;6.788;2024-02-16T12:28:27;15.10;99.90
7846;DHT22;3968;51.424;6.788;2024-02-16T12:30:58;15.00;99.90
7846;DHT22;3968;51.424;6.788;2024-02-16T12:33:24;15.00;99.90
7846;DHT22;3968;51.424;6.788;2024-02-16T12:35:50;15.00;99.90
7846;DHT22;3968;51.424;6.788;2024-02-16T12:38:16;15.00;99.90
7846;DHT22;3968;51.424;6.788;2024-02-16T12:40:48;15.00;99.90
7846;DHT22;3968;51.424;6.788;2024-02-16T12:43:14;15.00;99.90
7846;DHT22;3968;51.424;6.788;2024-02-16T12:45:41;15.10;99.90
7846;DHT22;3968;51.424;6.788;2024-02-16T12:48:07;15.10;99.90
7846;DHT22;3968;51.424;6.788;2024-02-16T12:50:33;15.10;99.90
7846;DHT22;3968;51.424;6.788;2024-02-16T12:52:59;15.10;99.90
7846;DHT22;3968;51.424;6.788;2024-02-16T12:55:25;15.10;99.90
7846;DHT22;3968;51.424;6.788;2024-02-16T12:57:51;15.00;99.90
7846;DHT22;3968;51.424;6.788;2024-02-16T13:00:17;15.00;99.90
7846;DHT22;3968;51.424;6.788;2024-02-16T13:02:43;15.00;99.90
7846;DHT22;3968;51.424;6.788;2024-02-16T13:05:09;15.00;99.90
7846;DHT22;3968;51.424;6.788;2024-02-16T13:07:37;15.10;99.90
7846;DHT22;3968;51.424;6.788;2024-02-16T13:10:05;15.10;99.90
7846;DHT22;3968;51.424;6.788;2024-02-16T13:12:31;15.10;99.90
7846;DHT22;3968;51.424;6.788;2024-02-16T13:14:56;15.10;99.90
7846;DHT22;3968;51.424;6.788;2024-02-16T13:17:22;15.00;99.90
7846;DHT22;3968;51.424;6.788;2024-02-16T13:19:47;15.00;99.90
7846;DHT22;3968;51.424;6.788;2024-02-16T13:22:13;15.00;99.90
7846;DHT22;3968;51.424;6.788;2024-02-16T13:24:39;14.90;99.90
7846;DHT22;3968;51.424;6.788;2024-02-16T13:27:04;15.00;99.90
7846;DHT22;3968;51.424;6.788;2024-02-16T13:29:32;14.90;99.90
7846;DHT22;3968;51.424;6.788;2024-02-16T13:31:57;14.90;99.90
7846;DHT22;3968;51.424;6.788;2024-02-16T13:34:23;14.90;99.90
7846;DHT22;3968;51.424;6.788;2024-02-16T13:36:49;14.80;99.90
7846;DHT22;3968;51.424;6.788;2024-02-16T13:39:14;14.80;99.90
7846;DHT22;3968;51.424;6.788;2024-02-16T13:41:41;14.80;99.90
7846;DHT22;3968;51.424;6.788;2024-02-16T13:44:09;14.80;99.90
7846;DHT22;3968;51.424;6.788;2024-02-16T13:46:35;14.80;99.90
7846;DHT22;3968;51.424;6.788;2024-02-16T13:49:01;14.80;99.90
7846;DHT22;3968;51.424;6.788;2024-02-16T13:51:26;14.80;99.90
7846;DHT22;3968;51.424;6.788;2024-02-16T13:53:52;14.70;99.90
7846;DHT22;3968;51.424;6.788;2024-02-16T13:56:18;14.70;99.90
7846;DHT22;3968;51.424;6.788;2024-02-16T13:58:43;14.60;99.90
7846;DHT22;3968;51.424;6.788;2024-02-16T14:01:09;14.60;99.90
7846;DHT22;3968;51.424;6.788;2024-02-16T14:03:35;14.60;99.90
7846;DHT22;3968;51.424;6.788;2024-02-16T14:06:02;14.50;99.90
7846;DHT22;3968;51.424;6.788;2024-02-16T14:08:28;14.50;99.90
7846;DHT22;3968;51.424;6.788;2024-02-16T14:10:53;14.50;99.90
7846;DHT22;3968;51.424;6.788;2024-02-16T14:13:19;14.50;99.90
7846;DHT22;3968;51.424;6.788;2024-02-16T14:15:45;14.50;99.90
7846;DHT22;3968;51.424;6.788;2024-02-16T14:18:11;14.40;99.90
7846;DHT22;3968;51.424;6.788;2024-02-16T14:20:36;14.40;99.90
7846;DHT22;3968;51.424;6.788;2024-02-16T14:23:02;14.40;99.90
7846;DHT22;3968;51.424;6.788;2024-02-16T14:25:33;14.40;99.90
7846;DHT22;3968;51.424;6.788;2024-02-16T14:27:58;14.40;99.90
7846;DHT22;3968;51.424;6.788;2024-02-16T14:30:24;14.30;99.90
7846;DHT22;3968;51.424;6.788;2024-02-16T14:32:49;14.20;99.90
7846;DHT22;3968;51.424;6.788;2024-02-16T14:35:16;14.20;99.90
7846;DHT22;3968;51.424;6.788;2024-02-16T14:37:42;14.30;99.90
7846;DHT22;3968;51.424;6.788;2024-02-16T14:40:08;14.20;99.90
7846;DHT22;3968;51.424;6.788;2024-02-16T14:42:35;14.10;99.90
7846;DHT22;3968;51.424;6.788;2024-02-16T14:45:01;14.10;99.90
7846;DHT22;3968;51.424;6.788;2024-02-16T14:47:28;14.00;99.90
7846;DHT22;3968;51.424;6.788;2024-02-16T14:49:54;14.00;99.90
7846;DHT22;3968;51.424;6.788;2024-02-16T14:52:19;14.00;99.90
7846;DHT22;3968;51.424;6.788;2024-02-16T14:54:45;14.00;99.90
7846;DHT22;3968;51.424;6.788;2024-02-16T14:57:11;14.00;99.90
7846;DHT22;3968;51.424;6.788;2024-02-16T14:59:37;14.00;99.90
7846;DHT22;3968;51.424;6.788;2024-02-16T15:02:02;14.00;99.90
7846;DHT22;3968;51.424;6.788;2024-02-16T15:04:28;14.00;99.90
7846;DHT22;3968;51.424;6.788;2024-02-16T15:06:54;14.00;99.90
7846;DHT22;3968;51.424;6.788;2024-02-16T15:09:19;13.90;99.90
7846;DHT22;3968;51.424;6.788;2024-02-16T15:11:45;13.90;99.90
7846;DHT22;3968;51.424;6.788;2024-02-16T15:14:10;13.80;99.90
7846;DHT22;3968;51.424;6.788;2024-02-16T15:16:37;13.80;99.90
7846;DHT22;3968;51.424;6.788;2024-02-16T15:19:02;13.80;99.90
7846;DHT22;3968;51.424;6.788;2024-02-16T15:21:28;13.80;99.90
7846;DHT22;3968;51.424;6.788;2024-02-16T15:23:53;13.80;99.90
7846;DHT22;3968;51.424;6.788;2024-02-16T15:26:20;13.80;99.90
7846;DHT22;3968;51.424;6.788;2024-02-16T15:28:47;13.80;99.90
7846;DHT22;3968;51.424;6.788;2024-02-16T15:31:13;13.80;99.90
7846;DHT22;3968;51.424;6.788;2024-02-16T15:33:38;13.80;99.90
7846;DHT22;3968;51.424;6.788;2024-02-16T15:36:05;13.90;99.90
7846;DHT22;3968;51.424;6.788;2024-02-16T15:38:30;13.80;99.90
7846;DHT22;3968;51.424;6.788;2024-02-16T15:40:56;13.80;99.90
7846;DHT22;3968;51.424;6.788;2024-02-16T15:43:21;13.80;99.90
7846;DHT22;3968;51.424;6.788;2024-02-16T15:45:47;13.90;99.90
7846;DHT22;3968;51.424;6.788;2024-02-16T15:48:15;13.80;99.90
7846;DHT22;3968;51.424;6.788;2024-02-16T15:50:41;13.80;99.90
7846;DHT22;3968;51.424;6.788;2024-02-16T15:53:07;13.80;99.90
7846;DHT22;3968;51.424;6.788;2024-02-16T15:55:33;13.70;99.90
7846;DHT22;3968;51.424;6.788;2024-02-16T15:57:59;13.70;99.90